Latest Weather Observations for Maria Island

IDT60901

Issued at 6:21 pm EST Tuesday 28 July 2015 (issued every 10 minutes, with the page automatically refreshed every 10 minutes)

About weather observations | Map of Hobart area stations | Latest observations for Hobart area | Other Formats
Station Details ID: 092124 Name: MARIA ISLAND (POINT LESUEUR) Lat: -42.66 Lon: 148.02 Height: 28.0 m
Data from the previous 72 hours. | See also: Recent months at Maria Island
Date/Time
EST
Tmp

°C
App
Tmp
°C
Dew
Point
°C
Rel
Hum
%
Delta-T

°C
Wind Press
QNH
hPa
Press
MSL
hPa
Rain
since
9 am
mm
Dir
 
Spd
km/h
Gust
km/h
Spd
kts
Gust
kts
28/06:00pm 12.8 10.8 7.3 69 2.7 SW 7 11 4 6 1025.6 1025.7 0.0
28/05:30pm 12.5 10.8 7.6 72 2.4 SW 6 9 3 5 1025.3 1025.4 0.0
28/05:00pm 13.2 11.3 6.8 65 3.1 W 6 9 3 5 1024.9 1025.0 0.0
28/04:30pm 13.8 11.6 6.4 61 3.6 WSW 7 9 4 5 1024.6 1024.7 0.0
28/04:00pm 14.2 11.4 7.0 62 3.5 WSW 11 13 6 7 1024.4 1024.5 0.0
28/03:30pm 13.7 10.4 6.6 62 3.4 WSW 13 20 7 11 1024.3 1024.4 0.0
28/03:00pm 13.8 9.5 6.9 63 3.3 WSW 19 24 10 13 1024.0 1024.1 0.0
28/02:30pm 14.7 11.1 6.8 59 3.8 W 15 19 8 10 1024.0 1024.1 0.0
28/02:00pm 14.4 9.8 6.3 58 3.9 W 20 30 11 16 1023.8 1023.9 0.0
28/01:30pm 14.0 10.9 7.3 64 3.3 W 13 19 7 10 1024.2 1024.3 0.0
28/01:00pm 14.4 11.1 6.3 58 3.9 W 13 17 7 9 1024.3 1024.4 0.0
28/12:30pm 14.3 10.7 6.9 61 3.6 WNW 15 20 8 11 1024.4 1024.5 0.0
28/12:00pm 13.6 9.2 6.5 62 3.4 WNW 19 24 10 13 1024.6 1024.7 0.0
28/11:30am 12.6 9.6 5.8 63 3.2 NNW 11 17 6 9 1025.0 1025.1 0.0
28/11:00am 11.8 9.1 5.7 66 2.8 NW 9 13 5 7 1025.5 1025.6 0.0
28/10:30am 11.1 7.7 5.8 70 2.5 NW 13 17 7 9 1025.4 1025.5 0.0
28/10:00am 10.6 6.8 5.6 71 2.3 WNW 15 17 8 9 1025.0 1025.1 0.0
28/09:30am 10.2 6.4 5.8 74 2.0 W 15 19 8 10 1024.7 1024.8 0.0
28/09:00am 9.4 7.0 5.2 75 1.9 WNW 7 9 4 5 1024.8 1024.9 0.0
28/08:30am 10.0 7.5 5.0 71 2.3 NW 7 11 4 6 1024.6 1024.7 0.0
28/08:00am 9.7 7.5 5.1 73 2.1 WNW 6 19 3 10 1024.3 1024.4 0.0
28/07:30am 9.1 6.7 5.1 76 1.8 W 7 13 4 7 1023.9 1024.0 0.0
28/07:00am 9.7 5.6 4.5 70 2.3 W 15 19 8 10 1023.4 1023.5 0.0
28/06:30am 9.4 5.3 4.2 70 2.3 W 15 19 8 10 1023.1 1023.2 0.0
28/06:00am 9.4 6.0 3.8 68 2.4 W 11 15 6 8 1022.8 1022.9 0.0
28/05:30am 9.5 5.7 3.7 67 2.5 W 13 17 7 9 1022.5 1022.6 0.0
28/05:00am 9.8 5.2 3.8 66 2.6 WNW 17 24 9 13 1022.1 1022.2 0.0
28/04:30am 9.8 4.9 4.0 67 2.6 NW 19 26 10 14 1021.7 1021.8 0.0
28/04:00am 10.2 4.3 3.7 64 2.8 WNW 24 32 13 17 1021.3 1021.4 0.0
28/03:30am 9.8 4.6 3.3 64 2.8 W 20 32 11 17 1021.1 1021.2 0.0
28/03:00am 9.5 6.5 3.9 68 2.4 W 9 20 5 11 1021.2 1021.3 0.0
28/02:30am 9.5 5.8 4.7 72 2.1 W 13 19 7 10 1021.3 1021.4 0.0
28/02:00am 9.0 4.2 5.4 78 1.6 WNW 20 24 11 13 1021.1 1021.2 0.0
28/01:30am 8.5 4.5 4.9 78 1.6 W 15 19 8 10 1020.9 1021.0 0.0
28/01:00am 8.7 6.4 4.7 76 1.8 WNW 6 7 3 4 1021.0 1021.1 0.0
28/12:30am 9.7 4.5 5.3 74 2.0 WSW 22 32 12 17 1020.7 1020.8 0.0
28/12:00am 10.0 6.3 4.6 69 2.4 W 13 30 7 16 1020.7 1020.8 0.0
 
Date/Time
EST
Tmp

°C
App
Tmp
°C
Dew
Point
°C
Rel
Hum
%
Delta-T

°C
Wind Press
QNH
hPa
Press
MSL
hPa
Rain
since
9 am
mm
Dir
 
Spd
km/h
Gust
km/h
Spd
kts
Gust
kts
27/11:30pm 9.6 6.6 4.0 68 2.5 NW 9 15 5 8 1020.6 1020.6 0.0
27/11:00pm 9.0 4.0 3.8 70 2.3 WNW 19 22 10 12 1020.4 1020.4 0.0
27/10:30pm 8.8 4.2 3.6 70 2.2 WNW 17 19 9 10 1020.3 1020.3 0.0
27/10:00pm 8.7 4.5 3.7 71 2.2 WNW 15 19 8 10 1020.1 1020.1 0.0
27/09:30pm 8.8 4.9 3.6 70 2.2 NW 13 15 7 8 1020.0 1020.0 0.0
27/09:00pm 9.2 5.7 3.4 67 2.5 NNW 11 13 6 7 1020.0 1020.0 0.0
27/08:30pm 9.6 5.3 3.4 65 2.7 W 15 19 8 10 1019.6 1019.6 0.0
27/08:00pm 9.5 5.6 3.5 66 2.6 W 13 20 7 11 1019.2 1019.2 0.0
27/07:30pm 9.6 6.1 3.6 66 2.6 W 11 17 6 9 1019.0 1019.0 0.0
27/07:00pm 10.1 5.5 3.8 65 2.8 WSW 17 28 9 15 1018.8 1018.8 0.0
27/06:30pm 10.1 5.1 3.8 65 2.8 WSW 19 26 10 14 1018.4 1018.4 0.0
27/06:00pm 10.4 5.4 3.7 63 2.9 WSW 19 28 10 15 1018.0 1018.0 0.0
27/05:30pm 10.4 5.3 3.9 64 2.9 SW 20 30 11 16 1017.4 1017.4 0.0
27/05:00pm 10.8 3.9 4.5 65 2.8 SW 30 44 16 24 1017.1 1017.1 0.0
27/04:30pm 10.9 4.0 4.4 64 2.9 SW 30 41 16 22 1016.5 1016.5 0.0
27/04:10pm 11.0 4.3 3.8 61 3.2 SW 28 46 15 25 1016.1 1016.1 0.0
27/04:00pm 11.2 4.2 4.0 61 3.2 SW 30 37 16 20 1016.1 1016.1 0.0
27/03:30pm 11.7 3.4 4.0 59 3.4 SW 37 52 20 28 1016.0 1016.0 0.0
27/03:27pm 11.8 4.2 3.8 58 3.6 SW 33 52 18 28 1015.8 1015.8 0.0
27/03:00pm 11.8 5.2 4.3 60 3.4 SW 28 33 15 18 1015.8 1015.8 0.0
27/02:30pm 11.5 5.2 3.8 59 3.4 WSW 26 44 14 24 1015.2 1015.2 0.0
27/02:00pm 11.4 4.6 3.2 57 3.6 SW 28 39 15 21 1014.9 1014.9 0.0
27/01:50pm 11.6 4.2 4.1 60 3.4 SW 32 50 17 27 1014.9 1014.9 0.0
27/01:30pm 11.1 3.8 2.7 56 3.6 SW 30 41 16 22 1014.7 1014.7 0.0
27/01:00pm 10.7 5.4 2.8 58 3.4 SW 20 30 11 16 1014.9 1014.9 0.0
27/12:30pm 10.9 5.3 3.5 60 3.3 WSW 22 32 12 17 1015.1 1015.1 0.0
27/12:00pm 10.4 2.8 2.7 59 3.3 WSW 32 44 17 24 1015.1 1015.1 0.0
27/11:30am 9.8 2.0 3.1 63 2.9 WSW 33 43 18 23 1015.2 1015.2 0.0
27/11:00am 9.7 1.1 2.8 62 3.0 WSW 37 46 20 25 1015.2 1015.2 0.0
27/10:43am 9.5 2.9 2.1 60 3.1 WSW 26 57 14 31 1015.0 1015.0 0.0
27/10:42am 9.6 3.5 2.5 61 3.0 WSW 24 57 13 31 1014.7 1014.7 0.0
27/10:30am 9.1 4.6 2.2 62 2.9 W 15 22 8 12 1015.1 1015.1 0.0
27/10:11am 9.2 2.2 2.1 61 3.0 WSW 28 50 15 27 1014.7 1014.7 0.0
27/10:00am 9.0 1.1 2.3 63 2.8 SW 33 46 18 25 1014.5 1014.5 0.0
27/09:44am 8.8 1.8 1.9 62 2.9 WSW 28 46 15 25 1014.3 1014.3 0.0
27/09:30am 8.8 2.2 1.9 62 2.9 SW 26 41 14 22 1014.3 1014.3 0.0
27/09:00am 7.8 -2.1 1.6 65 2.5 WSW 43 56 23 30 1013.9 1013.9 0.0
27/08:30am 7.5 -1.8 0.9 63 2.6 WSW 39 59 21 32 1013.5 1013.5 0.0
27/08:09am 7.5 -2.1 0.9 63 2.6 WSW 41 59 22 32 1013.0 1013.0 0.0
27/08:00am 7.7 -2.2 1.8 66 2.4 WSW 43 57 23 31 1012.9 1012.9 0.0
27/07:30am 7.6 -4.0 1.5 65 2.5 SW 52 72 28 39 1012.0 1012.0 0.0
27/07:00am 6.8 -3.2 0.9 66 2.3 WSW 43 61 23 33 1011.7 1011.7 0.0
27/06:30am 7.0 -3.6 0.7 64 2.5 WSW 46 70 25 38 1011.2 1011.2 0.0
27/06:08am 6.9 -3.8 -0.1 61 2.7 WSW 46 67 25 36 1011.2 1011.2 0.0
27/06:00am 6.8 -3.5 0.3 63 2.5 SW 44 61 24 33 1011.2 1011.2 0.0
27/05:39am 6.9 -4.1 0.6 64 2.5 WSW 48 67 26 36 1010.6 1010.6 0.0
27/05:30am 7.0 -4.8 0.2 62 2.7 WSW 52 67 28 36 1010.2 1010.2 0.0
27/05:00am 6.8 -3.5 0.0 62 2.6 WSW 44 72 24 39 1009.7 1009.7 0.0
27/04:58am 6.8 -3.4 -0.2 61 2.7 WSW 43 72 23 39 1009.5 1009.5 0.0
27/04:36am 6.6 -2.4 0.1 63 2.5 WSW 37 57 20 31 1009.8 1009.8 0.0
27/04:30am 6.4 -1.7 -0.1 63 2.5 WSW 32 46 17 25 1010.1 1010.1 0.0
27/04:00am 6.5 -3.6 0.4 65 2.4 WSW 43 67 23 36 1009.2 1009.2 0.0
27/03:34am 6.7 -4.4 0.2 63 2.5 WSW 48 70 26 38 1008.2 1008.2 0.0
27/03:30am 6.7 -4.4 -0.1 62 2.6 WSW 48 63 26 34 1008.5 1008.5 0.0
27/03:00am 6.8 -2.3 -0.4 60 2.8 WSW 37 61 20 33 1008.0 1008.0 0.0
27/02:30am 7.2 -3.8 0.9 64 2.5 WSW 48 72 26 39 1006.9 1006.9 0.0
27/02:25am 7.1 -3.2 0.5 63 2.6 WSW 44 72 24 39 1006.6 1006.6 0.0
27/02:19am 7.0 -4.3 0.9 65 2.4 SW 50 70 27 38 1006.7 1006.7 0.0
27/02:00am 7.2 -5.9 0.6 63 2.6 SW 59 83 32 45 1005.8 1005.8 0.0
27/01:53am 7.3 -6.3 0.1 60 2.8 SW 61 83 33 45 1005.4 1005.4 0.0
27/01:30am 7.4 -5.4 0.4 61 2.8 WSW 57 74 31 40 1005.4 1005.4 0.0
27/01:05am 7.4 -2.9 0.4 61 2.8 WSW 44 69 24 37 1005.2 1005.2 0.0
27/01:00am 7.5 -2.1 0.9 63 2.7 WSW 41 54 22 29 1005.5 1005.5 0.0
27/12:44am 7.4 -2.7 0.6 62 2.7 WSW 43 72 23 39 1005.2 1005.2 0.0
27/12:41am 7.4 -2.3 0.4 61 2.8 WSW 41 59 22 32 1005.2 1005.2 0.0
27/12:30am 7.4 0.5 0.4 61 2.8 WSW 26 39 14 21 1005.3 1005.3 0.0
27/12:00am 7.6 -1.3 1.0 63 2.7 WSW 37 57 20 31 1004.8 1004.8 0.0
 
Date/Time
EST
Tmp

°C
App
Tmp
°C
Dew
Point
°C
Rel
Hum
%
Delta-T

°C
Wind Press
QNH
hPa
Press
MSL
hPa
Rain
since
9 am
mm
Dir
 
Spd
km/h
Gust
km/h
Spd
kts
Gust
kts
26/11:48pm 7.6 -1.5 1.9 67 2.3 WSW 39 57 21 31 1004.5 1004.5 0.0
26/11:30pm 7.2 -1.1 2.3 71 2.0 WSW 35 52 19 28 1004.2 1004.2 0.0
26/11:00pm 7.1 -2.2 3.2 76 1.7 WSW 41 54 22 29 1003.3 1003.3 0.0
26/10:30pm 7.0 -2.2 3.6 79 1.4 WSW 41 50 22 27 1002.6 1002.6 0.0
26/10:12pm 7.2 -1.9 4.0 80 1.4 W 41 59 22 32 1002.5 1002.5 0.0
26/10:00pm 7.4 -2.0 4.4 81 1.3 WSW 43 59 23 32 1002.1 1002.1 0.0
26/09:30pm 7.7 -3.1 3.9 77 1.6 WSW 50 74 27 40 1001.2 1001.2 0.0
26/09:27pm 7.7 -3.9 3.7 76 1.7 WSW 54 74 29 40 1001.2 1001.2 0.0
26/09:00pm 8.6 -5.6 3.4 70 2.3 WSW 67 85 36 46 999.2 999.2 0.0
26/08:57pm 8.5 -5.3 3.4 70 2.2 WSW 65 83 35 45 998.9 999.0 0.0
26/08:48pm 8.8 -2.6 3.0 67 2.5 WSW 52 70 28 38 998.8 998.9 0.0
26/08:42pm 8.6 -0.7 2.8 67 2.5 WSW 41 61 22 33 998.8 998.9 0.0
26/08:30pm 8.2 -0.3 3.3 71 2.1 W 37 54 20 29 998.7 998.8 0.0
26/08:22pm 8.0 0.3 3.3 72 2.0 W 33 54 18 29 998.8 998.9 0.0
26/08:11pm 7.8 0.7 3.7 75 1.8 W 30 46 16 25 998.5 998.6 0.0
26/08:00pm 7.2 2.0 3.6 78 1.5 WNW 20 28 11 15 998.7 998.8 0.0
26/07:30pm 7.3 -0.2 3.7 78 1.5 W 32 44 17 24 998.0 998.1 0.0
26/07:00pm 8.3 1.1 3.2 70 2.2 W 30 37 16 20 997.2 997.3 0.0
26/06:30pm 8.5 3.1 2.3 65 2.6 WNW 20 28 11 15 996.3 996.4 0.0
26/06:00pm 8.3 3.4 2.1 65 2.6 NW 17 28 9 15 994.9 995.0 0.0
26/05:30pm 8.4 0.2 2.6 67 2.4 NW 35 46 19 25 993.6 993.7 0.0
26/05:00pm 9.5 2.0 1.4 57 3.4 WNW 30 52 16 28 993.9 994.0 0.0
26/04:59pm 9.4 2.0 1.6 58 3.2 NW 30 52 16 28 993.9 994.0 0.0
26/04:30pm 10.1 2.3 1.5 55 3.6 NW 32 41 17 22 993.5 993.6 0.0
26/04:00pm 10.6 1.4 1.4 53 3.9 WNW 39 57 21 31 992.8 992.9 0.0
26/03:50pm 10.7 2.9 1.5 53 3.9 WNW 32 61 17 33 992.3 992.4 0.0
26/03:30pm 10.9 3.4 1.2 51 4.0 NW 30 44 16 24 992.6 992.7 0.0
26/03:00pm 11.0 2.6 1.8 53 3.9 NNW 35 52 19 28 992.7 992.8 0.0
26/02:35pm 10.5 3.4 1.6 54 3.7 NW 28 54 15 29 992.5 992.6 0.0
26/02:30pm 10.4 3.6 1.0 52 3.9 NW 26 35 14 19 992.4 992.5 0.0
26/02:00pm 10.7 2.3 1.3 52 4.0 NW 35 57 19 31 992.5 992.6 0.0
26/01:30pm 11.1 0.0 -0.1 46 4.5 NW 48 72 26 39 991.6 991.7 0.0
26/01:00pm 11.2 1.2 0.9 49 4.3 NNW 43 61 23 33 991.4 991.5 0.0
26/12:37pm 11.0 0.9 1.8 53 3.9 NNW 44 63 24 34 991.3 991.4 0.0
26/12:30pm 10.8 0.7 1.4 52 3.9 NNW 44 59 24 32 991.7 991.8 0.0
26/12:12pm 10.4 -0.3 2.3 57 3.4 NNW 48 69 26 37 991.9 992.0 0.0
26/12:00pm 10.3 -1.6 2.4 58 3.4 NNW 54 72 29 39 991.8 991.9 0.0
26/11:31am 10.4 -1.3 1.2 53 3.8 NW 52 76 28 41 991.6 991.7 0.0
26/11:30am 10.4 -1.3 1.2 53 3.8 NW 52 70 28 38 991.8 991.9 0.0
26/11:09am 9.8 -2.4 2.4 60 3.1 NW 56 76 30 41 992.5 992.6 0.0
26/11:00am 9.7 -2.7 2.6 61 3.1 NNW 57 69 31 37 992.3 992.4 0.0
26/10:30am 9.3 -2.8 3.1 65 2.7 NNW 56 69 30 37 992.4 992.5 0.0
26/10:00am 8.7 -3.6 1.8 62 2.9 NNW 56 72 30 39 992.9 993.0 0.0
26/09:47am 8.7 -2.9 1.6 61 2.9 NNW 52 72 28 39 993.1 993.2 0.0
26/09:30am 8.7 -2.0 2.7 66 2.5 NNW 48 59 26 32 993.7 993.8 0.0
26/09:00am 8.3 -3.5 3.0 69 2.3 NNW 54 63 29 34 993.7 993.8 0.0
26/08:51am 8.1 -2.2 2.6 68 2.3 NNW 46 61 25 33 993.8 993.9 0.0
26/08:30am 7.5 -0.4 2.2 69 2.2 NNW 33 41 18 22 994.5 994.6 0.0
26/08:00am 7.4 -2.3 2.7 72 2.0 NNW 43 56 23 30 994.5 994.6 0.0
26/07:30am 7.6 -2.2 2.5 70 2.1 NNW 43 50 23 27 994.0 994.1 0.0
26/07:00am 7.4 -1.6 2.7 72 2.0 NNW 39 50 21 27 993.9 994.0 0.0
26/06:30am 7.2 -1.9 2.1 70 2.1 NNW 39 52 21 28 994.0 994.1 0.0
26/06:03am 7.2 -4.5 3.3 76 1.6 NNW 54 72 29 39 993.6 993.7 0.0
26/06:00am 7.2 -5.1 3.3 76 1.7 NNW 57 72 31 39 993.6 993.7 0.0
26/05:38am 8.4 -2.5 3.3 70 2.2 NW 50 70 27 38 993.9 994.0 0.0
26/05:30am 8.6 -1.9 3.6 71 2.2 NNW 48 57 26 31 993.7 993.8 0.0
26/05:00am 8.6 -1.1 3.8 72 2.1 NNW 44 54 24 29 993.4 993.5 0.0
26/04:30am 8.7 -2.1 3.9 72 2.1 NNW 50 59 27 32 992.9 993.0 0.0
26/04:00am 8.9 -1.9 3.9 71 2.2 NNW 50 59 27 32 993.6 993.7 0.0
26/03:30am 9.2 -0.2 4.4 72 2.1 NW 43 50 23 27 993.9 994.0 0.0
26/03:00am 9.4 1.3 5.2 75 1.9 NNW 37 44 20 24 993.9 994.0 0.0
26/02:30am 9.9 3.6 5.7 75 1.9 NNW 28 33 15 18 994.1 994.2 0.0
26/02:00am 10.5 4.0 6.6 77 1.9 NNW 30 41 16 22 994.7 994.8 0.0
26/01:30am 10.7 3.3 6.8 77 1.8 NNW 35 48 19 26 994.5 994.6 0.0
26/01:09am 12.1 2.5 6.4 68 2.7 NNW 46 69 25 37 994.1 994.2 0.0
26/01:00am 12.0 4.1 6.1 67 2.8 N 37 50 20 27 994.5 994.6 0.0
26/12:31am 12.0 1.8 5.4 64 3.1 N 48 67 26 36 994.9 995.0 0.0
26/12:30am 12.0 1.5 5.4 64 3.1 N 50 67 27 36 994.8 994.9 0.0
26/12:06am 12.4 3.5 5.3 62 3.3 N 41 67 22 36 994.8 994.9 0.0
26/12:00am 12.1 4.1 5.9 66 2.9 N 37 50 20 27 995.3 995.4 0.0
 
Date/Time
EST
Tmp

°C
App
Tmp
°C
Dew
Point
°C
Rel
Hum
%
Delta-T

°C
Wind Press
QNH
hPa
Press
MSL
hPa
Rain
since
9 am
mm
Dir
 
Spd
km/h
Gust
km/h
Spd
kts
Gust
kts
25/11:30pm 11.9 1.9 6.0 67 2.8 N 48 57 26 31 995.8 995.9 0.0
25/11:00pm 11.6 1.2 5.9 68 2.7 N 50 61 27 33 996.5 996.6 0.0
25/10:30pm 11.5 -1.1 5.6 67 2.7 N 61 74 33 40 996.7 996.8 0.0
25/10:14pm 11.4 0.5 5.5 67 2.7 N 52 72 28 39 996.8 996.9 0.0
25/10:00pm 11.1 2.5 6.3 72 2.3 N 41 50 22 27 998.0 998.1 0.0
25/09:30pm 10.9 1.6 5.2 68 2.6 N 43 50 23 27 999.0 999.1 0.0
25/09:00pm 10.6 2.2 5.4 70 2.4 N 39 46 21 25 999.6 999.6 0.0
25/08:30pm 10.3 2.8 4.5 67 2.6 N 33 41 18 22 1000.3 1000.3 0.0
25/08:00pm 10.2 1.2 4.8 69 2.4 N 41 54 22 29 1001.0 1001.0 0.0
25/07:30pm 10.3 2.6 5.3 71 2.3 N 35 41 19 22 1001.2 1001.2 0.0
25/07:00pm 10.5 3.8 5.7 72 2.2 N 30 33 16 18 1001.3 1001.3 0.0
25/06:30pm 10.9 4.5 5.4 69 2.5 N 28 35 15 19 1001.7 1001.7 0.0

Latest Capital City Observations: Canberra | Sydney | Melbourne | Brisbane | Adelaide | Perth | Hobart | Darwin

Other Formats:

Comma delimited format used in spreadsheet applications
http://www.bom.gov.au/fwo/IDT60901/IDT60901.95988.axf

JavaScript Object Notation format (JSON) in row-major order
http://www.bom.gov.au/fwo/IDT60901/IDT60901.95988.json